Time;durP1;ratioP1;P1;durP2;ratioP2;P2;SDS_P1;SDS_P2;PMS_P1;PMS_P2;Temp;Humidity;BMP_temperature;BMP_pressure;BME280_temperature;BME280_humidity;BME280_pressure;Samples;Min_cycle;Max_cycle;Signal;HPM_P1;HPM_P2
2024/01/16 05:02:24;;;;;;;3.47;3.28;;;0.40;99.90;;;;;;5016240;23;20292;-69
2024/01/16 05:04:51;;;;;;;2.05;1.95;;;0.30;99.90;;;;;;4908682;29;20230;-69
2024/01/16 05:07:20;;;;;;;2.72;2.45;;;0.40;99.90;;;;;;4913341;29;20214;-69
2024/01/16 05:09:47;;;;;;;1.48;1.38;;;0.40;99.90;;;;;;4908120;29;20211;-69
2024/01/16 05:12:14;;;;;;;3.78;2.67;;;0.40;99.90;;;;;;4923166;29;20240;-69
2024/01/16 05:14:41;;;;;;;1.05;1.05;;;0.40;99.90;;;;;;4921450;29;20217;-69
2024/01/16 05:17:08;;;;;;;0.85;0.85;;;0.50;99.90;;;;;;4920488;29;20210;-69
2024/01/16 05:19:36;;;;;;;0.82;0.68;;;0.50;99.90;;;;;;4923163;29;20598;-69
2024/01/16 05:22:02;;;;;;;1.40;0.93;;;0.50;99.90;;;;;;4920131;29;20234;-69
2024/01/16 05:24:29;;;;;;;0.70;0.70;;;0.50;99.90;;;;;;4918432;29;20218;-68
2024/01/16 05:26:56;;;;;;;2.67;1.02;;;0.50;99.90;;;;;;4929057;29;20217;-68
2024/01/16 05:29:23;;;;;;;0.45;0.45;;;0.50;99.90;;;;;;4924515;29;20587;-69
2024/01/16 05:31:50;;;;;;;0.43;0.43;;;0.50;99.90;;;;;;4922420;29;20231;-69
2024/01/16 05:34:16;;;;;;;0.88;0.88;;;0.50;99.90;;;;;;4927820;29;20661;-69
2024/01/16 05:36:45;;;;;;;0.50;0.30;;;0.50;99.90;;;;;;4920678;29;20218;-68
2024/01/16 05:39:11;;;;;;;0.50;0.30;;;0.50;99.90;;;;;;4919027;29;20227;-69
2024/01/16 05:41:38;;;;;;;1.05;0.95;;;0.50;99.90;;;;;;4921834;29;20329;-69
2024/01/16 05:44:05;;;;;;;1.00;0.82;;;0.50;99.90;;;;;;4925735;29;20220;-68
2024/01/16 05:46:32;;;;;;;0.30;0.30;;;0.50;99.90;;;;;;4928952;29;20206;-69
2024/01/16 05:48:59;;;;;;;1.95;1.15;;;0.50;99.90;;;;;;4923170;29;20229;-70
2024/01/16 05:51:26;;;;;;;0.30;0.30;;;0.50;99.90;;;;;;4926894;29;20242;-69
2024/01/16 05:53:54;;;;;;;0.90;0.90;;;0.50;99.90;;;;;;4922284;29;20210;-69
2024/01/16 05:56:21;;;;;;;0.77;0.77;;;0.50;99.90;;;;;;4924296;29;20289;-68
2024/01/16 05:58:48;;;;;;;5.72;1.85;;;0.60;99.90;;;;;;4922622;29;20226;-68
2024/01/16 06:01:15;;;;;;;1.27;0.77;;;0.50;99.90;;;;;;4925025;29;20238;-69
2024/01/16 06:03:45;;;;;;;1.33;1.10;;;0.60;99.90;;;;;;4917660;29;20210;-68
2024/01/16 06:06:12;;;;;;;1.50;1.40;;;0.50;99.90;;;;;;4918556;29;20623;-69
2024/01/16 06:08:38;;;;;;;1.23;1.17;;;0.60;99.90;;;;;;4923979;29;20217;-68
2024/01/16 06:11:06;;;;;;;2.83;2.22;;;0.60;99.90;;;;;;4923351;29;20230;-69
2024/01/16 06:13:33;;;;;;;2.08;1.83;;;0.60;99.90;;;;;;4916315;29;20218;-68
2024/01/16 06:16:00;;;;;;;3.30;2.60;;;0.60;99.90;;;;;;4921418;29;20214;-69
2024/01/16 06:18:27;;;;;;;1.58;1.13;;;0.60;99.90;;;;;;4925534;29;20234;-68
2024/01/16 06:20:53;;;;;;;3.65;1.70;;;0.60;99.90;;;;;;4920222;29;20227;-68
2024/01/16 06:23:20;;;;;;;2.42;1.65;;;0.60;99.90;;;;;;4921379;29;20203;-69
2024/01/16 06:25:47;;;;;;;7.97;1.60;;;0.70;99.90;;;;;;4920422;29;20565;-68
2024/01/16 06:28:15;;;;;;;5.43;3.97;;;0.60;99.90;;;;;;4921948;29;20212;-68
2024/01/16 06:30:41;;;;;;;3.25;2.47;;;0.60;99.90;;;;;;4925834;29;20230;-69
2024/01/16 06:33:08;;;;;;;3.38;3.00;;;0.60;99.90;;;;;;4921929;29;20221;-68
2024/01/16 06:35:35;;;;;;;3.72;3.38;;;0.70;99.90;;;;;;4921922;29;20218;-68
2024/01/16 06:38:02;;;;;;;5.47;3.67;;;0.60;99.90;;;;;;4924084;29;20206;-70
2024/01/16 06:40:29;;;;;;;2.22;2.00;;;0.70;99.90;;;;;;4920398;29;20211;-70
2024/01/16 06:42:56;;;;;;;3.08;2.88;;;0.60;99.90;;;;;;4920660;29;20217;-69
2024/01/16 06:45:26;;;;;;;6.13;4.35;;;0.60;99.90;;;;;;4920661;29;20259;-70
2024/01/16 06:47:53;;;;;;;4.93;2.70;;;0.60;99.90;;;;;;4916678;29;20210;-69
2024/01/16 06:50:19;;;;;;;4.80;3.33;;;0.70;99.90;;;;;;4920429;29;20233;-68
2024/01/16 06:52:46;;;;;;;2.78;2.58;;;0.70;99.90;;;;;;4919058;29;20254;-68
2024/01/16 06:55:13;;;;;;;2.45;1.95;;;0.70;99.90;;;;;;4919646;29;20290;-68
2024/01/16 06:57:39;;;;;;;13.18;3.47;;;0.70;99.90;;;;;;4922301;29;20209;-68
2024/01/16 07:00:08;;;;;;;5.22;3.58;;;0.70;99.90;;;;;;4917179;29;20230;-69
2024/01/16 07:02:36;;;;;;;4.95;2.35;;;0.70;99.90;;;;;;4918870;29;20329;-68
2024/01/16 07:05:03;;;;;;;2.35;2.20;;;0.70;99.90;;;;;;4917979;29;20206;-68
2024/01/16 07:07:30;;;;;;;6.28;2.45;;;0.80;99.90;;;;;;4918705;29;20215;-69
2024/01/16 07:09:57;;;;;;;2.47;2.38;;;0.80;99.90;;;;;;4920295;29;20211;-65
2024/01/16 07:12:23;;;;;;;2.30;2.08;;;0.70;99.90;;;;;;4918749;29;20226;-69
2024/01/16 07:14:50;;;;;;;6.38;2.15;;;0.70;99.90;;;;;;4915895;29;20583;-69
2024/01/16 07:17:17;;;;;;;4.60;3.53;;;0.70;99.90;;;;;;4923116;29;20628;-69
2024/01/16 07:19:45;;;;;;;4.25;3.10;;;0.80;99.90;;;;;;4928657;29;20229;-69
2024/01/16 07:22:13;;;;;;;4.82;4.43;;;0.80;99.90;;;;;;4925868;29;20248;-69
2024/01/16 07:24:40;;;;;;;4.53;2.67;;;0.80;99.90;;;;;;4920175;29;20306;-69
2024/01/16 07:27:07;;;;;;;8.18;2.72;;;0.80;99.90;;;;;;4923336;29;20214;-69
2024/01/16 07:29:34;;;;;;;3.20;2.25;;;0.80;99.90;;;;;;4916955;29;20214;-69
2024/01/16 07:32:00;;;;;;;3.22;3.10;;;0.70;99.90;;;;;;4922529;29;20312;-68
2024/01/16 07:34:27;;;;;;;9.57;2.33;;;0.80;99.90;;;;;;4927652;29;20286;-70
2024/01/16 07:36:55;;;;;;;3.33;3.13;;;0.80;99.90;;;;;;4919785;29;20233;-70
2024/01/16 07:39:22;;;;;;;3.55;3.28;;;0.80;99.90;;;;;;4921074;29;20222;-70
2024/01/16 07:41:49;;;;;;;2.53;2.33;;;0.80;99.90;;;;;;4916648;29;20235;-70
2024/01/16 07:44:16;;;;;;;5.85;2.75;;;0.80;99.90;;;;;;4922723;29;20214;-68
2024/01/16 07:46:42;;;;;;;3.65;3.38;;;0.80;99.90;;;;;;4918763;29;20210;-69
2024/01/16 07:49:09;;;;;;;2.00;1.70;;;0.80;99.90;;;;;;4920640;29;20220;-68
2024/01/16 07:51:36;;;;;;;4.50;2.53;;;0.80;99.90;;;;;;4923481;29;20241;-69
2024/01/16 07:54:08;;;;;;;3.65;1.20;;;0.80;99.90;;;;;;4917683;29;20581;-69
2024/01/16 07:56:35;;;;;;;2.00;1.90;;;0.80;99.90;;;;;;4916973;29;20213;-69
2024/01/16 07:59:03;;;;;;;1.17;1.17;;;0.90;99.90;;;;;;4920092;29;20233;-69
2024/01/16 08:01:30;;;;;;;3.45;1.75;;;0.90;99.90;;;;;;4922505;29;22079;-69
2024/01/16 08:03:57;;;;;;;3.30;3.10;;;0.90;99.90;;;;;;4918418;29;20266;-70
2024/01/16 08:06:24;;;;;;;1.98;1.88;;;0.90;99.90;;;;;;4917120;29;20210;-69
2024/01/16 08:08:50;;;;;;;1.60;1.50;;;0.90;99.90;;;;;;4927130;29;20279;-69
2024/01/16 08:11:19;;;;;;;3.00;2.78;;;0.90;99.90;;;;;;4925175;29;20226;-69
2024/01/16 08:13:46;;;;;;;1.67;1.52;;;0.90;99.90;;;;;;4919180;29;20210;-69
2024/01/16 08:16:13;;;;;;;4.55;2.38;;;0.90;99.90;;;;;;4918655;29;20210;-69
2024/01/16 08:18:39;;;;;;;1.27;1.27;;;0.90;99.90;;;;;;4918839;29;20271;-68
2024/01/16 08:21:07;;;;;;;3.38;3.08;;;0.90;99.90;;;;;;4925007;29;20230;-69
2024/01/16 08:23:34;;;;;;;1.55;1.52;;;1.00;99.90;;;;;;4916773;29;20210;-69
2024/01/16 08:26:01;;;;;;;3.78;2.70;;;1.00;99.90;;;;;;4919888;29;20216;-69
2024/01/16 08:28:29;;;;;;;1.92;1.83;;;1.00;99.90;;;;;;4924943;29;20681;-69
2024/01/16 08:30:56;;;;;;;1.42;0.65;;;1.00;99.90;;;;;;4917811;29;20223;-69
2024/01/16 08:33:23;;;;;;;3.42;1.38;;;1.00;99.90;;;;;;4921984;29;20210;-69
2024/01/16 08:35:50;;;;;;;2.35;1.80;;;1.00;99.90;;;;;;4914928;29;20237;-69
2024/01/16 08:38:16;;;;;;;1.75;1.20;;;1.00;99.90;;;;;;4918055;29;20206;-69
2024/01/16 08:40:43;;;;;;;5.03;1.60;;;1.00;99.90;;;;;;4920790;29;20230;-69
2024/01/16 08:43:10;;;;;;;1.75;1.65;;;1.00;99.90;;;;;;4919863;29;20206;-69
2024/01/16 08:45:38;;;;;;;1.65;1.55;;;1.00;99.90;;;;;;4912347;29;20214;-69
2024/01/16 08:48:05;;;;;;;4.50;1.40;;;1.10;99.90;;;;;;4917962;29;20241;-69
2024/01/16 08:50:32;;;;;;;0.63;0.60;;;1.10;99.90;;;;;;4920428;29;20967;-69
2024/01/16 08:52:59;;;;;;;8.45;2.15;;;1.10;99.90;;;;;;4928846;29;20300;-69
2024/01/16 08:55:25;;;;;;;2.28;1.58;;;1.10;99.90;;;;;;4918919;29;20279;-69
2024/01/16 08:57:52;;;;;;;2.35;2.13;;;1.10;99.90;;;;;;4917862;29;20222;-69
2024/01/16 09:00:19;;;;;;;3.30;2.50;;;1.20;99.90;;;;;;4914367;29;20226;-69
2024/01/16 09:02:48;;;;;;;7.60;2.03;;;1.20;99.90;;;;;;4922337;29;20720;-69
2024/01/16 09:05:15;;;;;;;5.53;1.63;;;1.20;99.90;;;;;;4924773;29;20218;-69
2024/01/16 09:07:42;;;;;;;1.50;1.40;;;1.20;99.90;;;;;;4915208;29;20218;-70
2024/01/16 09:10:10;;;;;;;1.50;1.50;;;1.30;99.90;;;;;;4919599;29;20208;-71
2024/01/16 09:12:36;;;;;;;1.30;1.25;;;1.30;99.90;;;;;;4912371;29;20211;-70
2024/01/16 09:15:04;;;;;;;1.23;1.23;;;1.40;99.90;;;;;;4917581;29;20210;-70
2024/01/16 09:17:31;;;;;;;1.38;1.38;;;1.40;99.90;;;;;;4916891;29;20214;-70
2024/01/16 09:19:59;;;;;;;3.80;2.65;;;1.40;99.90;;;;;;4920724;29;20230;-70
2024/01/16 09:22:26;;;;;;;2.50;1.42;;;1.50;99.90;;;;;;4916113;29;20711;-70
2024/01/16 09:24:53;;;;;;;4.10;1.90;;;1.50;99.90;;;;;;4919712;29;20207;-70
2024/01/16 09:27:19;;;;;;;2.03;1.92;;;1.50;99.90;;;;;;4921075;29;20592;-70
2024/01/16 09:29:46;;;;;;;2.33;2.05;;;1.50;99.90;;;;;;4917832;29;20203;-69
2024/01/16 09:32:13;;;;;;;2.53;1.45;;;1.50;99.90;;;;;;4921333;29;20230;-70
2024/01/16 09:34:40;;;;;;;1.52;1.42;;;1.50;99.90;;;;;;4918567;29;20301;-70
2024/01/16 09:37:08;;;;;;;1.52;1.45;;;1.50;99.90;;;;;;4923483;29;20214;-70
2024/01/16 09:39:37;;;;;;;0.95;0.95;;;1.50;99.90;;;;;;4915784;29;20827;-70
2024/01/16 09:42:05;;;;;;;3.38;1.73;;;1.40;99.90;;;;;;4921351;29;20317;-70
2024/01/16 09:44:31;;;;;;;4.40;1.90;;;1.40;99.90;;;;;;4917960;29;20215;-70
2024/01/16 09:47:00;;;;;;;7.20;3.38;;;1.40;99.90;;;;;;4923406;29;20210;-70
2024/01/16 09:49:26;;;;;;;1.98;1.23;;;1.40;99.90;;;;;;4918096;29;20693;-69
2024/01/16 09:51:53;;;;;;;3.58;1.50;;;1.50;99.90;;;;;;4925989;29;20226;-69
2024/01/16 09:54:21;;;;;;;1.70;1.60;;;1.50;99.90;;;;;;4922856;29;20217;-70
2024/01/16 09:56:52;;;;;;;1.35;1.25;;;1.60;99.90;;;;;;4918653;29;20700;-71
2024/01/16 09:59:21;;;;;;;6.10;3.08;;;1.60;99.90;;;;;;4917845;29;20206;-70
2024/01/16 10:01:49;;;;;;;2.25;1.77;;;1.70;99.90;;;;;;4923686;29;20244;-70
2024/01/16 10:04:17;;;;;;;9.90;4.10;;;1.70;99.90;;;;;;4919603;29;20207;-70
2024/01/16 10:06:46;;;;;;;3.88;2.33;;;1.70;99.90;;;;;;4925602;29;20252;-70
2024/01/16 10:09:13;;;;;;;2.42;2.08;;;1.70;99.90;;;;;;4918843;29;20239;-70
2024/01/16 10:11:43;;;;;;;1.45;1.45;;;1.70;99.90;;;;;;4918145;29;20241;-70
2024/01/16 10:14:10;;;;;;;9.00;2.28;;;1.80;99.90;;;;;;4924654;29;20207;-70
2024/01/16 10:16:58;;;;;;;2.22;1.70;;;1.80;99.90;;;;;;4923503;29;20218;-70
2024/01/16 10:19:25;;;;;;;1.63;1.52;;;1.80;99.90;;;;;;4916008;29;20270;-70
2024/01/16 10:21:52;;;;;;;1.15;0.85;;;1.80;99.90;;;;;;4921122;29;20229;-69
2024/01/16 10:24:19;;;;;;;5.70;2.05;;;1.90;99.90;;;;;;4926670;29;20619;-69
2024/01/16 10:26:59;;;;;;;1.70;1.48;;;1.90;99.90;;;;;;4922553;29;20266;-69
2024/01/16 10:29:26;;;;;;;1.40;1.30;;;2.00;99.90;;;;;;4925875;29;20254;-69
2024/01/16 10:31:53;;;;;;;2.95;2.20;;;2.00;99.90;;;;;;4917777;29;20231;-69
2024/01/16 10:34:21;;;;;;;2.42;2.35;;;2.00;99.90;;;;;;4920119;29;20310;-70
2024/01/16 10:36:49;;;;;;;5.53;1.35;;;2.10;99.90;;;;;;4922824;29;20214;-70
2024/01/16 10:39:16;;;;;;;3.20;3.00;;;2.20;99.90;;;;;;4918747;29;20214;-71
2024/01/16 10:41:54;;;;;;;3.17;2.03;;;2.10;99.90;;;;;;4918805;29;20567;-70
2024/01/16 10:44:22;;;;;;;0.80;0.80;;;2.10;99.90;;;;;;4919098;29;20214;-70
2024/01/16 10:46:49;;;;;;;1.67;1.58;;;2.10;99.90;;;;;;4920664;29;20218;-70
2024/01/16 10:49:16;;;;;;;1.00;1.00;;;2.00;99.90;;;;;;4922066;29;20206;-70
2024/01/16 10:51:44;;;;;;;2.38;2.28;;;2.00;99.90;;;;;;4929717;29;20252;-70
2024/01/16 10:54:15;;;;;;;4.10;1.35;;;2.10;99.90;;;;;;4927436;29;20214;-70
2024/01/16 10:56:45;;;;;;;1.67;1.52;;;2.10;99.90;;;;;;4923476;29;20239;-70
2024/01/16 10:59:19;;;;;;;2.92;1.05;;;2.20;99.90;;;;;;4921316;29;20238;-69
2024/01/16 11:01:52;;;;;;;7.25;2.28;;;2.20;99.90;;;;;;4916989;29;20264;-70
2024/01/16 11:04:20;;;;;;;1.40;1.40;;;2.30;99.90;;;;;;4917665;29;20560;-70
2024/01/16 11:06:48;;;;;;;6.93;2.70;;;2.20;99.90;;;;;;4911831;29;20315;-70
2024/01/16 11:09:16;;;;;;;1.77;1.67;;;2.20;99.90;;;;;;4911901;29;20207;-69
2024/01/16 11:11:45;;;;;;;2.95;1.85;;;2.30;99.90;;;;;;4916585;29;20298;-70
2024/01/16 11:14:14;;;;;;;2.28;2.17;;;2.20;99.90;;;;;;4917108;29;20868;-70
2024/01/16 11:16:43;;;;;;;2.25;2.15;;;2.30;99.90;;;;;;4916452;29;20263;-69
2024/01/16 11:19:11;;;;;;;1.08;1.08;;;2.30;99.90;;;;;;4914980;29;20609;-70
2024/01/16 11:21:38;;;;;;;6.93;1.90;;;2.30;99.90;;;;;;4915603;29;20234;-70
2024/01/16 11:24:06;;;;;;;1.30;1.30;;;2.40;99.90;;;;;;4930924;29;20291;-70
2024/01/16 11:26:36;;;;;;;4.68;2.90;;;2.40;99.90;;;;;;4921871;29;20549;-69
2024/01/16 11:29:34;;;;;;;3.50;1.90;;;2.40;99.90;;;;;;4919908;29;20206;-70
2024/01/16 11:32:03;;;;;;;6.47;2.70;;;2.40;99.90;;;;;;4915293;29;20584;-70
2024/01/16 11:34:58;;;;;;;2.30;2.20;;;2.30;99.90;;;;;;4914842;29;20215;-71
2024/01/16 11:37:29;;;;;;;2.78;1.75;;;2.40;99.90;;;;;;4917998;29;20276;-71
2024/01/16 11:40:22;;;;;;;2.28;2.20;;;2.40;99.90;;;;;;4917159;29;20249;-70
2024/01/16 11:42:49;;;;;;;1.83;1.83;;;2.30;99.90;;;;;;4916369;29;20315;-71
2024/01/16 11:45:48;;;;;;;2.88;2.78;;;2.40;99.90;;;;;;4915865;29;20212;-70
2024/01/16 11:48:17;;;;;;;7.70;2.47;;;2.40;99.90;;;;;;4914835;29;20270;-70
2024/01/16 11:50:45;;;;;;;2.97;2.78;;;2.30;99.90;;;;;;4915680;29;20577;-70
2024/01/16 11:53:31;;;;;;;3.72;2.80;;;2.30;99.90;;;;;;4914746;29;20204;-70
2024/01/16 11:56:16;;;;;;;5.10;2.58;;;2.40;99.90;;;;;;4914406;29;20218;-70
2024/01/16 11:58:49;;;;;;;2.05;1.92;;;2.40;99.90;;;;;;4915364;29;20215;-70
2024/01/16 12:01:19;;;;;;;3.55;3.22;;;2.40;99.90;;;;;;4915127;29;20242;-70
2024/01/16 12:03:46;;;;;;;2.40;2.30;;;2.40;99.90;;;;;;4918065;29;20225;-70
2024/01/16 12:06:17;;;;;;;2.25;2.25;;;2.40;99.90;;;;;;4921072;29;20204;-70
2024/01/16 12:08:44;;;;;;;4.63;3.92;;;2.40;99.90;;;;;;4918491;29;20654;-70
2024/01/16 12:11:10;;;;;;;3.60;3.30;;;2.40;99.90;;;;;;4917001;29;20232;-71
2024/01/16 12:13:37;;;;;;;3.67;3.38;;;2.30;99.90;;;;;;4913470;29;20310;-70
2024/01/16 12:16:05;;;;;;;4.90;2.45;;;2.30;99.90;;;;;;4914228;29;20236;-70
2024/01/16 12:18:32;;;;;;;2.65;2.45;;;2.30;99.90;;;;;;4913858;29;20671;-69
2024/01/16 12:21:08;;;;;;;4.35;2.60;;;2.20;99.90;;;;;;4918967;29;20237;-70
2024/01/16 12:23:36;;;;;;;2.75;2.65;;;2.20;99.90;;;;;;4917822;29;20215;-71
2024/01/16 12:26:03;;;;;;;6.50;5.88;;;2.20;99.90;;;;;;4918426;29;20545;-70
2024/01/16 12:28:31;;;;;;;4.25;3.53;;;2.30;99.90;;;;;;4916217;29;20720;-70
2024/01/16 12:30:57;;;;;;;3.35;3.05;;;2.20;99.90;;;;;;4913417;29;20246;-70
2024/01/16 12:33:24;;;;;;;4.43;3.92;;;2.30;99.90;;;;;;4916151;29;20215;-70
2024/01/16 12:35:51;;;;;;;4.95;4.28;;;2.30;99.90;;;;;;4914703;29;20698;-70
2024/01/16 12:38:18;;;;;;;2.63;2.53;;;2.30;99.90;;;;;;4920956;29;20216;-71
2024/01/16 12:40:50;;;;;;;2.92;2.58;;;2.40;99.90;;;;;;4914922;29;20243;-70
2024/01/16 12:43:18;;;;;;;10.43;3.95;;;2.40;99.90;;;;;;4919813;29;20215;-70
2024/01/16 12:45:45;;;;;;;3.05;2.83;;;2.40;99.90;;;;;;4919416;29;20643;-70
2024/01/16 12:48:12;;;;;;;6.40;2.65;;;2.40;99.90;;;;;;4916078;29;20209;-71
2024/01/16 12:50:39;;;;;;;3.13;3.03;;;2.40;99.90;;;;;;4917619;29;20720;-71
2024/01/16 12:53:08;;;;;;;2.70;2.60;;;2.40;99.90;;;;;;4919574;29;20218;-70
2024/01/16 12:55:36;;;;;;;5.20;3.05;;;2.30;99.90;;;;;;4918721;29;20220;-70
2024/01/16 12:58:18;;;;;;;3.15;2.83;;;2.30;99.90;;;;;;4914225;29;20222;-71
2024/01/16 13:00:45;;;;;;;6.22;3.80;;;2.30;99.90;;;;;;4915191;29;20231;-72
2024/01/16 13:03:19;;;;;;;3.65;2.53;;;2.20;99.90;;;;;;4920481;29;20224;-72
2024/01/16 13:05:46;;;;;;;4.10;3.75;;;2.20;99.90;;;;;;4916785;29;20597;-72
2024/01/16 13:08:18;;;;;;;4.10;2.88;;;2.20;99.90;;;;;;4920899;29;20206;-72
2024/01/16 13:10:45;;;;;;;3.30;2.75;;;2.20;99.90;;;;;;4918686;29;20235;-72
2024/01/16 13:13:14;;;;;;;5.97;3.72;;;2.20;99.90;;;;;;4920080;29;20206;-71
2024/01/16 13:15:42;;;;;;;2.13;2.00;;;2.20;99.90;;;;;;4922045;29;20211;-71
2024/01/16 13:18:19;;;;;;;2.53;2.35;;;2.20;99.90;;;;;;4917418;29;20216;-71
2024/01/16 13:20:46;;;;;;;4.45;3.50;;;2.20;99.90;;;;;;4927009;29;20251;-72
2024/01/16 13:23:14;;;;;;;5.63;4.38;;;2.20;99.90;;;;;;4922116;29;20206;-72
2024/01/16 13:25:43;;;;;;;3.80;3.60;;;2.20;99.90;;;;;;4919796;29;20265;-72
2024/01/16 13:28:09;;;;;;;7.22;4.15;;;2.20;99.90;;;;;;4916726;29;20211;-71
2024/01/16 13:30:38;;;;;;;3.47;3.28;;;2.20;99.90;;;;;;4922546;29;20219;-72
2024/01/16 13:33:05;;;;;;;10.75;3.45;;;2.20;99.90;;;;;;4923617;29;20202;-71
2024/01/16 13:35:31;;;;;;;4.22;3.28;;;2.20;99.90;;;;;;4922564;29;20213;-71
2024/01/16 13:37:59;;;;;;;10.45;3.90;;;2.20;99.90;;;;;;4924906;29;20242;-71
2024/01/16 13:40:26;;;;;;;6.80;2.92;;;2.10;99.90;;;;;;4924539;29;20215;-71
2024/01/16 13:42:52;;;;;;;3.70;2.90;;;2.10;99.90;;;;;;4921266;29;20218;-71
2024/01/16 13:45:19;;;;;;;4.32;4.03;;;2.10;99.90;;;;;;4933886;29;20206;-71
2024/01/16 13:47:47;;;;;;;3.58;3.20;;;2.10;99.90;;;;;;4934867;29;20207;-71
2024/01/16 13:50:14;;;;;;;3.53;2.85;;;2.10;99.90;;;;;;4924257;29;20216;-71
2024/01/16 13:52:41;;;;;;;3.22;2.90;;;2.10;99.90;;;;;;4919526;29;20228;-71
2024/01/16 13:55:08;;;;;;;2.22;2.13;;;2.10;99.90;;;;;;4925790;29;20210;-71
2024/01/16 13:57:36;;;;;;;3.95;3.08;;;2.10;99.90;;;;;;4922741;29;20231;-70
2024/01/16 14:00:04;;;;;;;2.60;2.40;;;2.10;99.90;;;;;;4920853;29;20213;-71
2024/01/16 14:02:30;;;;;;;2.63;2.47;;;2.10;99.90;;;;;;4919293;29;20606;-71
2024/01/16 14:04:59;;;;;;;4.25;3.95;;;2.10;99.90;;;;;;4921821;29;20221;-71
2024/01/16 14:07:25;;;;;;;11.35;3.92;;;2.10;99.90;;;;;;4921932;29;20266;-71
2024/01/16 14:09:52;;;;;;;8.00;6.55;;;2.10;99.90;;;;;;4915018;29;20216;-72
2024/01/16 14:12:19;;;;;;;4.63;4.22;;;2.10;99.90;;;;;;4913514;29;20717;-72
2024/01/16 14:14:47;;;;;;;6.80;6.30;;;2.10;99.90;;;;;;4915481;29;20630;-72
2024/01/16 14:17:14;;;;;;;7.55;2.88;;;2.10;99.90;;;;;;4915689;29;20211;-72
2024/01/16 14:19:41;;;;;;;6.38;2.90;;;2.00;99.90;;;;;;4915500;29;20229;-72
2024/01/16 14:22:09;;;;;;;7.75;3.38;;;2.00;99.90;;;;;;4914340;29;20230;-72
2024/01/16 14:24:37;;;;;;;2.25;2.15;;;2.00;99.90;;;;;;4915113;29;20212;-71
2024/01/16 14:27:04;;;;;;;2.67;2.47;;;2.00;99.90;;;;;;4921976;29;20851;-72
2024/01/16 14:29:31;;;;;;;4.05;3.63;;;2.00;99.90;;;;;;4926093;29;20218;-71
2024/01/16 14:31:58;;;;;;;1.70;1.60;;;2.00;99.90;;;;;;4928582;29;20234;-70
2024/01/16 14:34:25;;;;;;;3.20;2.20;;;2.00;99.90;;;;;;4921621;29;20608;-71
2024/01/16 14:36:53;;;;;;;6.45;1.98;;;2.00;99.90;;;;;;4928732;29;20299;-71
2024/01/16 14:39:24;;;;;;;4.72;2.58;;;2.00;99.90;;;;;;4916531;29;20289;-71
2024/01/16 14:41:51;;;;;;;3.40;2.20;;;2.00;99.90;;;;;;4921825;29;20315;-72
2024/01/16 14:44:18;;;;;;;2.20;2.10;;;2.00;99.90;;;;;;4922621;29;20218;-72
2024/01/16 14:46:45;;;;;;;2.03;1.52;;;2.00;99.90;;;;;;4925118;29;20701;-72
2024/01/16 14:49:12;;;;;;;2.03;1.92;;;2.00;99.90;;;;;;4927977;29;20221;-72
2024/01/16 14:51:39;;;;;;;3.17;2.53;;;1.90;99.90;;;;;;4915507;29;20231;-72
2024/01/16 14:54:05;;;;;;;2.92;2.67;;;1.90;99.90;;;;;;4920576;29;20214;-72
2024/01/16 14:56:33;;;;;;;3.28;2.50;;;1.90;99.90;;;;;;4917421;29;20212;-72
2024/01/16 14:59:00;;;;;;;3.60;3.28;;;1.90;99.90;;;;;;4918032;29;20210;-72
2024/01/16 15:01:27;;;;;;;5.07;2.95;;;1.90;99.90;;;;;;4918251;29;20730;-72
2024/01/16 15:03:54;;;;;;;3.80;3.28;;;1.90;99.90;;;;;;4917618;29;20220;-72
2024/01/16 15:06:22;;;;;;;2.83;2.50;;;1.90;99.90;;;;;;4918651;29;20288;-72
2024/01/16 15:08:49;;;;;;;3.22;2.58;;;1.90;99.90;;;;;;4919052;29;20208;-71
2024/01/16 15:11:16;;;;;;;7.80;3.20;;;1.80;99.90;;;;;;4920927;29;20223;-72
2024/01/16 15:13:45;;;;;;;7.95;3.67;;;1.80;99.90;;;;;;4917064;29;20238;-72
2024/01/16 15:16:15;;;;;;;5.38;2.42;;;1.80;99.90;;;;;;4921781;29;20211;-71
2024/01/16 15:18:43;;;;;;;3.33;2.97;;;1.80;99.90;;;;;;4915768;29;20210;-71
2024/01/16 15:21:10;;;;;;;4.25;3.88;;;1.80;99.90;;;;;;4922539;29;20340;-72
2024/01/16 15:23:37;;;;;;;1.55;1.55;;;1.80;99.90;;;;;;4918831;29;20217;-71
2024/01/16 15:26:04;;;;;;;3.53;2.60;;;1.80;99.90;;;;;;4917983;29;20218;-70
2024/01/16 15:28:31;;;;;;;4.72;2.38;;;1.80;99.90;;;;;;4915823;29;20214;-72
2024/01/16 15:31:06;;;;;;;2.08;2.05;;;1.80;99.90;;;;;;4917436;29;20234;-71
2024/01/16 15:33:34;;;;;;;1.58;1.50;;;1.80;99.90;;;;;;4915554;29;20207;-71
2024/01/16 15:36:00;;;;;;;2.15;1.98;;;1.80;99.90;;;;;;4922285;29;20203;-71
2024/01/16 15:38:28;;;;;;;5.07;3.20;;;1.80;99.90;;;;;;4915347;29;20214;-70
2024/01/16 15:40:54;;;;;;;2.25;2.08;;;1.80;99.90;;;;;;4916524;29;20283;-71
2024/01/16 15:43:21;;;;;;;9.75;2.95;;;1.80;99.90;;;;;;4915124;29;20245;-70
2024/01/16 15:45:48;;;;;;;6.90;2.40;;;1.80;99.90;;;;;;4920366;29;20218;-69
2024/01/16 15:48:16;;;;;;;4.47;2.20;;;1.80;99.90;;;;;;4923165;29;20232;-70
2024/01/16 15:50:43;;;;;;;2.95;2.55;;;1.80;99.90;;;;;;4916549;29;20230;-71
2024/01/16 15:53:09;;;;;;;5.40;2.15;;;1.80;99.90;;;;;;4914367;29;20203;-71
2024/01/16 15:55:36;;;;;;;3.92;3.20;;;1.80;99.90;;;;;;4914119;29;20221;-71
2024/01/16 15:58:04;;;;;;;6.85;2.67;;;1.80;99.90;;;;;;4918424;29;20229;-71
2024/01/16 16:00:29;;;;;;;5.28;3.58;;;1.80;99.90;;;;;;4917496;29;20312;-72
2024/01/16 16:02:58;;;;;;;3.63;3.43;;;1.80;99.90;;;;;;4919429;29;20605;-72
2024/01/16 16:05:27;;;;;;;4.50;2.75;;;1.80;99.90;;;;;;4920170;29;20283;-71
2024/01/16 16:07:53;;;;;;;4.85;3.53;;;1.80;99.90;;;;;;4924828;29;20210;-71
2024/01/16 16:10:20;;;;;;;3.28;1.95;;;1.80;99.90;;;;;;4912655;29;20218;-72
2024/01/16 16:12:47;;;;;;;3.17;2.72;;;1.80;99.90;;;;;;4918406;29;20199;-71
2024/01/16 16:15:14;;;;;;;4.88;2.88;;;1.80;99.90;;;;;;4915557;29;20270;-71
2024/01/16 16:17:40;;;;;;;3.58;3.25;;;1.70;99.90;;;;;;4917349;29;20321;-71
2024/01/16 16:20:09;;;;;;;3.85;3.50;;;1.70;99.90;;;;;;4922513;29;20218;-71
2024/01/16 16:22:38;;;;;;;2.83;2.60;;;1.70;99.90;;;;;;4917207;29;20597;-71
2024/01/16 16:25:06;;;;;;;3.50;2.92;;;1.70;99.90;;;;;;4919335;29;20242;-71
2024/01/16 16:27:33;;;;;;;4.55;4.20;;;1.80;99.90;;;;;;4917296;29;20211;-73
2024/01/16 16:29:59;;;;;;;4.45;4.03;;;1.80;99.90;;;;;;4916425;29;20207;-71
2024/01/16 16:32:26;;;;;;;5.60;4.35;;;1.80;99.90;;;;;;4918162;29;20225;-72
2024/01/16 16:34:53;;;;;;;3.97;3.50;;;1.80;99.90;;;;;;4915773;29;20202;-71
2024/01/16 16:37:20;;;;;;;5.60;3.38;;;1.80;99.90;;;;;;4914413;29;20209;-71
2024/01/16 16:39:48;;;;;;;2.20;2.10;;;1.80;99.90;;;;;;4923606;29;20585;-71
2024/01/16 16:42:17;;;;;;;7.78;4.18;;;1.80;99.90;;;;;;4919144;29;20249;-71
2024/01/16 16:44:44;;;;;;;8.10;4.28;;;1.80;99.90;;;;;;4921259;29;20214;-71
2024/01/16 16:47:11;;;;;;;3.10;2.38;;;1.80;99.90;;;;;;4912643;29;20209;-71
2024/01/16 16:49:38;;;;;;;3.40;2.20;;;1.80;99.90;;;;;;4914746;29;20239;-71
2024/01/16 16:52:05;;;;;;;3.08;2.78;;;1.80;99.90;;;;;;4914206;29;20710;-71
2024/01/16 16:54:32;;;;;;;5.05;4.05;;;1.80;99.90;;;;;;4914593;29;20297;-71
2024/01/16 16:57:00;;;;;;;7.95;4.68;;;1.80;99.90;;;;;;4923273;29;20229;-70
2024/01/16 16:59:27;;;;;;;5.32;3.33;;;1.80;99.90;;;;;;4921444;29;20314;-70
2024/01/16 17:01:54;;;;;;;4.70;3.47;;;1.80;99.90;;;;;;4911764;29;20245;-70
2024/01/16 17:04:22;;;;;;;3.42;3.13;;;1.80;99.90;;;;;;4917743;29;20207;-70
2024/01/16 17:06:49;;;;;;;5.65;3.83;;;1.80;99.90;;;;;;4913511;29;20207;-70
2024/01/16 17:09:19;;;;;;;5.13;3.65;;;1.80;99.90;;;;;;4913336;29;20241;-70
2024/01/16 17:11:46;;;;;;;5.60;4.15;;;1.80;99.90;;;;;;4915722;29;20763;-70
2024/01/16 17:14:14;;;;;;;4.57;4.10;;;1.80;99.90;;;;;;4924973;29;20210;-70
2024/01/16 17:16:41;;;;;;;7.68;4.70;;;1.80;99.90;;;;;;4919145;29;20219;-70
2024/01/16 17:19:08;;;;;;;2.80;2.60;;;1.80;99.90;;;;;;4916949;29;20289;-70
2024/01/16 17:21:36;;;;;;;3.90;3.58;;;1.80;99.90;;;;;;4915432;29;20287;-70
2024/01/16 17:24:03;;;;;;;3.28;3.05;;;1.80;99.90;;;;;;4913723;29;20214;-71
2024/01/16 17:26:30;;;;;;;8.45;3.33;;;1.80;99.90;;;;;;4915609;29;20225;-71
2024/01/16 17:28:56;;;;;;;6.60;3.90;;;1.80;99.90;;;;;;4911795;29;20205;-70
2024/01/16 17:31:25;;;;;;;4.45;3.30;;;1.80;99.90;;;;;;4919680;29;20226;-71
2024/01/16 17:33:52;;;;;;;3.95;3.10;;;1.80;99.90;;;;;;4919550;29;20207;-71
2024/01/16 17:36:20;;;;;;;7.15;3.65;;;1.80;99.90;;;;;;4915954;29;20203;-70
2024/01/16 17:38:46;;;;;;;9.90;4.18;;;1.80;99.90;;;;;;4918153;29;20206;-70
2024/01/16 17:41:13;;;;;;;4.13;2.58;;;1.80;99.90;;;;;;4915828;29;20236;-70
2024/01/16 17:43:41;;;;;;;9.40;4.63;;;1.80;99.90;;;;;;4914876;29;20226;-70
2024/01/16 17:46:08;;;;;;;4.97;4.57;;;1.80;99.90;;;;;;4921211;29;20207;-71
2024/01/16 17:48:36;;;;;;;3.95;3.65;;;1.70;99.90;;;;;;4918906;29;20233;-69
2024/01/16 17:51:03;;;;;;;9.18;4.55;;;1.70;99.90;;;;;;4922515;29;20231;-69
2024/01/16 17:53:29;;;;;;;3.05;2.75;;;1.70;99.90;;;;;;4921274;29;20215;-69
2024/01/16 17:55:56;;;;;;;6.05;4.10;;;1.70;99.90;;;;;;4924446;29;20217;-70
2024/01/16 17:58:25;;;;;;;9.90;5.40;;;1.70;99.90;;;;;;4919675;29;20206;-69
2024/01/16 18:00:53;;;;;;;11.20;7.03;;;1.70;99.90;;;;;;4924039;29;20242;-69
2024/01/16 18:03:20;;;;;;;6.75;4.47;;;1.70;99.90;;;;;;4927124;29;20265;-69